sensor_id;sensor_type;location;lat;lon;timestamp;P1;durP1;ratioP1;P2;durP2;ratioP2
75408;SDS011;63979;55.644;37.734;2024-03-25T00:01:42;1.27;;;1.13;;
75408;SDS011;63979;55.644;37.734;2024-03-25T00:06:43;0.65;;;0.50;;
75408;SDS011;63979;55.644;37.734;2024-03-25T00:11:44;1.85;;;0.57;;
75408;SDS011;63979;55.644;37.734;2024-03-25T00:16:45;0.70;;;0.45;;
75408;SDS011;63979;55.644;37.734;2024-03-25T00:21:46;0.30;;;0.30;;
75408;SDS011;63979;55.644;37.734;2024-03-25T00:26:47;0.20;;;0.20;;
75408;SDS011;63979;55.644;37.734;2024-03-25T00:31:48;0.10;;;0.10;;
75408;SDS011;63979;55.644;37.734;2024-03-25T00:36:49;0.40;;;0.30;;
75408;SDS011;63979;55.644;37.734;2024-03-25T00:41:50;0.32;;;0.20;;
75408;SDS011;63979;55.644;37.734;2024-03-25T00:46:52;0.10;;;0.10;;
75408;SDS011;63979;55.644;37.734;2024-03-25T00:51:53;0.00;;;0.00;;
75408;SDS011;63979;55.644;37.734;2024-03-25T00:56:54;0.17;;;0.17;;
75408;SDS011;63979;55.644;37.734;2024-03-25T01:01:55;0.35;;;0.35;;
75408;SDS011;63979;55.644;37.734;2024-03-25T01:06:55;0.63;;;0.28;;
75408;SDS011;63979;55.644;37.734;2024-03-25T01:11:56;0.35;;;0.20;;
75408;SDS011;63979;55.644;37.734;2024-03-25T01:16:57;0.25;;;0.20;;
75408;SDS011;63979;55.644;37.734;2024-03-25T01:21:58;0.10;;;0.10;;
75408;SDS011;63979;55.644;37.734;2024-03-25T01:26:59;0.20;;;0.10;;
75408;SDS011;63979;55.644;37.734;2024-03-25T01:32:00;0.20;;;0.17;;
75408;SDS011;63979;55.644;37.734;2024-03-25T01:37:02;0.52;;;0.20;;
75408;SDS011;63979;55.644;37.734;2024-03-25T01:42:04;0.70;;;0.10;;
75408;SDS011;63979;55.644;37.734;2024-03-25T01:47:05;0.30;;;0.20;;
75408;SDS011;63979;55.644;37.734;2024-03-25T01:52:06;1.95;;;0.20;;
75408;SDS011;63979;55.644;37.734;2024-03-25T01:57:07;0.00;;;0.00;;
75408;SDS011;63979;55.644;37.734;2024-03-25T02:02:09;0.00;;;0.00;;
75408;SDS011;63979;55.644;37.734;2024-03-25T02:07:12;0.13;;;0.10;;
75408;SDS011;63979;55.644;37.734;2024-03-25T02:12:14;0.68;;;0.25;;
75408;SDS011;63979;55.644;37.734;2024-03-25T02:17:15;0.47;;;0.10;;
75408;SDS011;63979;55.644;37.734;2024-03-25T02:22:16;0.20;;;0.20;;
75408;SDS011;63979;55.644;37.734;2024-03-25T02:27:17;0.10;;;0.10;;
75408;SDS011;63979;55.644;37.734;2024-03-25T02:32:18;0.20;;;0.17;;
75408;SDS011;63979;55.644;37.734;2024-03-25T02:37:19;0.40;;;0.30;;
75408;SDS011;63979;55.644;37.734;2024-03-25T02:42:20;1.13;;;0.25;;
75408;SDS011;63979;55.644;37.734;2024-03-25T02:47:21;0.17;;;0.17;;
75408;SDS011;63979;55.644;37.734;2024-03-25T02:52:23;0.73;;;0.30;;
75408;SDS011;63979;55.644;37.734;2024-03-25T02:57:24;0.80;;;0.25;;
75408;SDS011;63979;55.644;37.734;2024-03-25T03:02:25;0.22;;;0.22;;
75408;SDS011;63979;55.644;37.734;2024-03-25T03:07:26;0.20;;;0.20;;
75408;SDS011;63979;55.644;37.734;2024-03-25T03:12:27;0.50;;;0.20;;
75408;SDS011;63979;55.644;37.734;2024-03-25T03:17:28;0.20;;;0.20;;
75408;SDS011;63979;55.644;37.734;2024-03-25T03:22:29;0.28;;;0.28;;
75408;SDS011;63979;55.644;37.734;2024-03-25T03:27:29;0.40;;;0.28;;
75408;SDS011;63979;55.644;37.734;2024-03-25T03:32:31;0.22;;;0.22;;
75408;SDS011;63979;55.644;37.734;2024-03-25T03:37:31;1.00;;;0.30;;
75408;SDS011;63979;55.644;37.734;2024-03-25T03:42:32;0.57;;;0.30;;
75408;SDS011;63979;55.644;37.734;2024-03-25T03:47:33;0.28;;;0.28;;
75408;SDS011;63979;55.644;37.734;2024-03-25T03:52:34;0.50;;;0.35;;
75408;SDS011;63979;55.644;37.734;2024-03-25T03:57:35;0.63;;;0.40;;
75408;SDS011;63979;55.644;37.734;2024-03-25T04:02:37;0.50;;;0.35;;
75408;SDS011;63979;55.644;37.734;2024-03-25T04:07:38;0.60;;;0.50;;
75408;SDS011;63979;55.644;37.734;2024-03-25T04:12:39;0.68;;;0.68;;
75408;SDS011;63979;55.644;37.734;2024-03-25T04:17:40;2.22;;;0.38;;
75408;SDS011;63979;55.644;37.734;2024-03-25T04:22:42;0.52;;;0.40;;
75408;SDS011;63979;55.644;37.734;2024-03-25T04:27:43;1.42;;;0.70;;
75408;SDS011;63979;55.644;37.734;2024-03-25T04:32:45;3.38;;;0.70;;
75408;SDS011;63979;55.644;37.734;2024-03-25T04:37:46;1.35;;;0.80;;
75408;SDS011;63979;55.644;37.734;2024-03-25T04:42:47;1.40;;;0.30;;
75408;SDS011;63979;55.644;37.734;2024-03-25T04:47:48;1.38;;;0.40;;
75408;SDS011;63979;55.644;37.734;2024-03-25T04:52:48;3.80;;;0.73;;
75408;SDS011;63979;55.644;37.734;2024-03-25T04:57:49;0.55;;;0.38;;
75408;SDS011;63979;55.644;37.734;2024-03-25T05:02:50;0.52;;;0.40;;
75408;SDS011;63979;55.644;37.734;2024-03-25T05:07:51;0.85;;;0.60;;
75408;SDS011;63979;55.644;37.734;2024-03-25T05:12:52;1.15;;;0.60;;
75408;SDS011;63979;55.644;37.734;2024-03-25T05:17:52;0.93;;;0.45;;
75408;SDS011;63979;55.644;37.734;2024-03-25T05:22:53;0.82;;;0.57;;
75408;SDS011;63979;55.644;37.734;2024-03-25T05:27:54;0.93;;;0.57;;
75408;SDS011;63979;55.644;37.734;2024-03-25T05:32:55;0.75;;;0.50;;
75408;SDS011;63979;55.644;37.734;2024-03-25T05:37:56;0.75;;;0.50;;
75408;SDS011;63979;55.644;37.734;2024-03-25T05:42:57;1.83;;;0.77;;
75408;SDS011;63979;55.644;37.734;2024-03-25T05:47:58;0.77;;;0.68;;
75408;SDS011;63979;55.644;37.734;2024-03-25T05:52:59;0.57;;;0.40;;
75408;SDS011;63979;55.644;37.734;2024-03-25T05:58:00;0.98;;;0.60;;
75408;SDS011;63979;55.644;37.734;2024-03-25T06:03:00;1.70;;;0.90;;
75408;SDS011;63979;55.644;37.734;2024-03-25T06:08:01;1.48;;;0.90;;
75408;SDS011;63979;55.644;37.734;2024-03-25T06:13:03;1.35;;;0.50;;
75408;SDS011;63979;55.644;37.734;2024-03-25T06:18:04;1.48;;;0.80;;
75408;SDS011;63979;55.644;37.734;2024-03-25T06:23:05;0.95;;;0.50;;
75408;SDS011;63979;55.644;37.734;2024-03-25T06:28:06;0.93;;;0.82;;
75408;SDS011;63979;55.644;37.734;2024-03-25T06:33:09;1.30;;;0.88;;
75408;SDS011;63979;55.644;37.734;2024-03-25T06:38:28;1.10;;;0.80;;
75408;SDS011;63979;55.644;37.734;2024-03-25T06:43:30;2.30;;;0.90;;
75408;SDS011;63979;55.644;37.734;2024-03-25T06:48:31;1.58;;;1.10;;
75408;SDS011;63979;55.644;37.734;2024-03-25T06:53:32;1.20;;;1.10;;
75408;SDS011;63979;55.644;37.734;2024-03-25T06:58:33;4.43;;;1.20;;
75408;SDS011;63979;55.644;37.734;2024-03-25T07:03:53;2.42;;;1.02;;
75408;SDS011;63979;55.644;37.734;2024-03-25T07:08:54;1.30;;;0.93;;
75408;SDS011;63979;55.644;37.734;2024-03-25T07:14:14;1.80;;;0.90;;
75408;SDS011;63979;55.644;37.734;2024-03-25T07:19:14;1.02;;;0.90;;
75408;SDS011;63979;55.644;37.734;2024-03-25T07:24:15;2.65;;;1.10;;
75408;SDS011;63979;55.644;37.734;2024-03-25T07:29:16;1.65;;;0.90;;
75408;SDS011;63979;55.644;37.734;2024-03-25T07:34:17;3.00;;;1.33;;
75408;SDS011;63979;55.644;37.734;2024-03-25T07:39:18;3.88;;;2.38;;
75408;SDS011;63979;55.644;37.734;2024-03-25T07:44:19;1.40;;;1.00;;
75408;SDS011;63979;55.644;37.734;2024-03-25T07:49:20;7.53;;;1.20;;
75408;SDS011;63979;55.644;37.734;2024-03-25T07:54:20;1.45;;;0.80;;
75408;SDS011;63979;55.644;37.734;2024-03-25T07:59:21;2.90;;;0.98;;
75408;SDS011;63979;55.644;37.734;2024-03-25T08:04:22;3.60;;;1.23;;
75408;SDS011;63979;55.644;37.734;2024-03-25T08:09:42;1.77;;;0.80;;
75408;SDS011;63979;55.644;37.734;2024-03-25T08:14:42;3.35;;;1.30;;
75408;SDS011;63979;55.644;37.734;2024-03-25T08:19:44;1.58;;;0.90;;
75408;SDS011;63979;55.644;37.734;2024-03-25T08:24:44;2.38;;;1.20;;
75408;SDS011;63979;55.644;37.734;2024-03-25T08:29:47;1.80;;;1.00;;
75408;SDS011;63979;55.644;37.734;2024-03-25T08:34:51;1.90;;;0.98;;
75408;SDS011;63979;55.644;37.734;2024-03-25T08:39:52;4.07;;;1.40;;
75408;SDS011;63979;55.644;37.734;2024-03-25T08:44:53;4.50;;;1.45;;
75408;SDS011;63979;55.644;37.734;2024-03-25T08:49:53;8.93;;;1.70;;
75408;SDS011;63979;55.644;37.734;2024-03-25T08:59:55;2.53;;;1.13;;
75408;SDS011;63979;55.644;37.734;2024-03-25T09:04:56;3.05;;;1.30;;
75408;SDS011;63979;55.644;37.734;2024-03-25T09:09:57;2.53;;;1.45;;
75408;SDS011;63979;55.644;37.734;2024-03-25T09:15:16;3.80;;;1.50;;
75408;SDS011;63979;55.644;37.734;2024-03-25T09:20:17;2.28;;;1.23;;
75408;SDS011;63979;55.644;37.734;2024-03-25T09:25:18;2.00;;;1.35;;
75408;SDS011;63979;55.644;37.734;2024-03-25T09:30:19;3.10;;;1.30;;
75408;SDS011;63979;55.644;37.734;2024-03-25T09:35:20;4.10;;;1.48;;
75408;SDS011;63979;55.644;37.734;2024-03-25T09:40:21;4.68;;;1.42;;
75408;SDS011;63979;55.644;37.734;2024-03-25T09:45:25;3.58;;;1.70;;
75408;SDS011;63979;55.644;37.734;2024-03-25T09:50:28;5.53;;;1.80;;
75408;SDS011;63979;55.644;37.734;2024-03-25T09:55:29;7.18;;;1.50;;
75408;SDS011;63979;55.644;37.734;2024-03-25T10:00:31;8.35;;;1.70;;
75408;SDS011;63979;55.644;37.734;2024-03-25T10:10:36;3.28;;;1.77;;
75408;SDS011;63979;55.644;37.734;2024-03-25T10:15:40;8.77;;;1.88;;
75408;SDS011;63979;55.644;37.734;2024-03-25T10:20:49;5.10;;;2.05;;
75408;SDS011;63979;55.644;37.734;2024-03-25T10:25:51;4.30;;;1.70;;
75408;SDS011;63979;55.644;37.734;2024-03-25T10:30:53;2.40;;;1.40;;
75408;SDS011;63979;55.644;37.734;2024-03-25T10:35:56;3.47;;;1.30;;
75408;SDS011;63979;55.644;37.734;2024-03-25T10:41:00;2.25;;;1.65;;
75408;SDS011;63979;55.644;37.734;2024-03-25T10:46:02;4.93;;;1.88;;
75408;SDS011;63979;55.644;37.734;2024-03-25T10:51:03;4.30;;;1.60;;
75408;SDS011;63979;55.644;37.734;2024-03-25T10:56:07;3.30;;;2.00;;
75408;SDS011;63979;55.644;37.734;2024-03-25T11:01:09;3.72;;;2.08;;
75408;SDS011;63979;55.644;37.734;2024-03-25T11:06:11;3.38;;;1.67;;
75408;SDS011;63979;55.644;37.734;2024-03-25T11:11:12;5.38;;;1.67;;
75408;SDS011;63979;55.644;37.734;2024-03-25T11:16:14;4.03;;;1.67;;
75408;SDS011;63979;55.644;37.734;2024-03-25T11:21:27;7.03;;;2.72;;
75408;SDS011;63979;55.644;37.734;2024-03-25T11:26:28;4.47;;;1.70;;
75408;SDS011;63979;55.644;37.734;2024-03-25T11:31:34;22.48;;;7.43;;
75408;SDS011;63979;55.644;37.734;2024-03-25T11:36:39;5.60;;;2.08;;
75408;SDS011;63979;55.644;37.734;2024-03-25T11:41:44;3.75;;;2.00;;
75408;SDS011;63979;55.644;37.734;2024-03-25T11:46:45;2.40;;;1.77;;
75408;SDS011;63979;55.644;37.734;2024-03-25T11:51:46;4.30;;;1.85;;
75408;SDS011;63979;55.644;37.734;2024-03-25T11:56:47;5.75;;;2.08;;
75408;SDS011;63979;55.644;37.734;2024-03-25T12:01:48;5.40;;;2.55;;
75408;SDS011;63979;55.644;37.734;2024-03-25T12:06:50;4.50;;;1.85;;
75408;SDS011;63979;55.644;37.734;2024-03-25T12:11:57;6.80;;;2.22;;
75408;SDS011;63979;55.644;37.734;2024-03-25T12:16:58;4.78;;;1.83;;
75408;SDS011;63979;55.644;37.734;2024-03-25T12:22:00;5.70;;;2.28;;
75408;SDS011;63979;55.644;37.734;2024-03-25T12:27:01;6.15;;;2.22;;
75408;SDS011;63979;55.644;37.734;2024-03-25T12:32:03;8.27;;;1.92;;
75408;SDS011;63979;55.644;37.734;2024-03-25T12:37:04;10.40;;;2.40;;
75408;SDS011;63979;55.644;37.734;2024-03-25T12:42:05;7.05;;;2.28;;
75408;SDS011;63979;55.644;37.734;2024-03-25T12:47:06;10.57;;;2.78;;
75408;SDS011;63979;55.644;37.734;2024-03-25T12:52:07;9.60;;;2.55;;
75408;SDS011;63979;55.644;37.734;2024-03-25T12:57:09;5.88;;;2.33;;
75408;SDS011;63979;55.644;37.734;2024-03-25T13:02:12;4.95;;;2.75;;
75408;SDS011;63979;55.644;37.734;2024-03-25T13:07:13;6.20;;;2.78;;
75408;SDS011;63979;55.644;37.734;2024-03-25T13:12:14;6.18;;;2.30;;
75408;SDS011;63979;55.644;37.734;2024-03-25T13:17:15;4.40;;;2.17;;
75408;SDS011;63979;55.644;37.734;2024-03-25T13:22:16;10.30;;;2.70;;
75408;SDS011;63979;55.644;37.734;2024-03-25T13:27:17;10.27;;;3.08;;
75408;SDS011;63979;55.644;37.734;2024-03-25T13:32:18;6.13;;;3.15;;
75408;SDS011;63979;55.644;37.734;2024-03-25T13:37:19;3.72;;;2.03;;
75408;SDS011;63979;55.644;37.734;2024-03-25T13:42:20;6.65;;;2.50;;
75408;SDS011;63979;55.644;37.734;2024-03-25T13:47:21;9.32;;;2.33;;
75408;SDS011;63979;55.644;37.734;2024-03-25T13:52:22;4.40;;;1.73;;
75408;SDS011;63979;55.644;37.734;2024-03-25T13:57:23;3.60;;;2.10;;
75408;SDS011;63979;55.644;37.734;2024-03-25T14:02:23;6.97;;;2.33;;
75408;SDS011;63979;55.644;37.734;2024-03-25T14:07:24;9.32;;;2.80;;
75408;SDS011;63979;55.644;37.734;2024-03-25T14:12:25;16.88;;;3.40;;
75408;SDS011;63979;55.644;37.734;2024-03-25T14:22:27;4.40;;;3.25;;
75408;SDS011;63979;55.644;37.734;2024-03-25T14:27:28;4.53;;;2.35;;
75408;SDS011;63979;55.644;37.734;2024-03-25T14:32:29;11.85;;;3.83;;
75408;SDS011;63979;55.644;37.734;2024-03-25T14:37:29;8.02;;;2.47;;
75408;SDS011;63979;55.644;37.734;2024-03-25T14:42:31;9.25;;;3.10;;
75408;SDS011;63979;55.644;37.734;2024-03-25T14:47:32;12.32;;;3.40;;
75408;SDS011;63979;55.644;37.734;2024-03-25T14:52:33;9.35;;;2.47;;
75408;SDS011;63979;55.644;37.734;2024-03-25T14:57:34;4.03;;;2.78;;
75408;SDS011;63979;55.644;37.734;2024-03-25T15:02:35;7.63;;;3.13;;
75408;SDS011;63979;55.644;37.734;2024-03-25T15:07:36;5.53;;;2.38;;
75408;SDS011;63979;55.644;37.734;2024-03-25T15:12:37;12.30;;;4.18;;
75408;SDS011;63979;55.644;37.734;2024-03-25T15:17:40;21.13;;;3.25;;
75408;SDS011;63979;55.644;37.734;2024-03-25T15:22:41;8.20;;;2.78;;
75408;SDS011;63979;55.644;37.734;2024-03-25T15:27:44;7.45;;;2.90;;
75408;SDS011;63979;55.644;37.734;2024-03-25T15:32:45;18.23;;;3.70;;
75408;SDS011;63979;55.644;37.734;2024-03-25T15:37:46;10.52;;;2.63;;
75408;SDS011;63979;55.644;37.734;2024-03-25T15:42:47;5.47;;;2.72;;
75408;SDS011;63979;55.644;37.734;2024-03-25T15:47:51;6.57;;;2.17;;
75408;SDS011;63979;55.644;37.734;2024-03-25T15:52:52;7.32;;;2.75;;
75408;SDS011;63979;55.644;37.734;2024-03-25T15:57:53;7.90;;;3.47;;
75408;SDS011;63979;55.644;37.734;2024-03-25T16:02:54;12.50;;;3.53;;
75408;SDS011;63979;55.644;37.734;2024-03-25T16:07:56;10.25;;;3.38;;
75408;SDS011;63979;55.644;37.734;2024-03-25T16:12:57;9.25;;;3.72;;
75408;SDS011;63979;55.644;37.734;2024-03-25T16:17:59;9.07;;;3.17;;
75408;SDS011;63979;55.644;37.734;2024-03-25T16:23:00;9.15;;;2.90;;
75408;SDS011;63979;55.644;37.734;2024-03-25T16:28:01;6.43;;;2.35;;
75408;SDS011;63979;55.644;37.734;2024-03-25T16:33:01;5.22;;;2.67;;
75408;SDS011;63979;55.644;37.734;2024-03-25T16:38:02;16.17;;;3.28;;
75408;SDS011;63979;55.644;37.734;2024-03-25T16:43:03;6.82;;;2.72;;
75408;SDS011;63979;55.644;37.734;2024-03-25T16:48:05;17.90;;;3.03;;
75408;SDS011;63979;55.644;37.734;2024-03-25T16:53:07;11.45;;;3.17;;
75408;SDS011;63979;55.644;37.734;2024-03-25T16:58:07;4.10;;;2.45;;
75408;SDS011;63979;55.644;37.734;2024-03-25T17:03:08;13.00;;;3.92;;
75408;SDS011;63979;55.644;37.734;2024-03-25T17:08:09;11.02;;;3.13;;
75408;SDS011;63979;55.644;37.734;2024-03-25T17:13:10;5.63;;;2.80;;
75408;SDS011;63979;55.644;37.734;2024-03-25T17:18:11;17.45;;;4.18;;
75408;SDS011;63979;55.644;37.734;2024-03-25T17:23:16;13.45;;;3.28;;
75408;SDS011;63979;55.644;37.734;2024-03-25T17:28:17;12.70;;;3.30;;
75408;SDS011;63979;55.644;37.734;2024-03-25T17:33:18;21.88;;;4.90;;
75408;SDS011;63979;55.644;37.734;2024-03-25T17:38:19;12.43;;;3.60;;
75408;SDS011;63979;55.644;37.734;2024-03-25T17:43:20;12.07;;;3.70;;
75408;SDS011;63979;55.644;37.734;2024-03-25T17:48:21;5.30;;;2.40;;
75408;SDS011;63979;55.644;37.734;2024-03-25T17:53:22;14.95;;;6.38;;
75408;SDS011;63979;55.644;37.734;2024-03-25T17:58:23;7.50;;;3.08;;
75408;SDS011;63979;55.644;37.734;2024-03-25T18:03:24;13.50;;;4.00;;
75408;SDS011;63979;55.644;37.734;2024-03-25T18:08:25;12.43;;;5.18;;
75408;SDS011;63979;55.644;37.734;2024-03-25T18:13:26;12.77;;;4.00;;
75408;SDS011;63979;55.644;37.734;2024-03-25T18:18:27;13.27;;;4.28;;
75408;SDS011;63979;55.644;37.734;2024-03-25T18:23:28;14.65;;;5.82;;
75408;SDS011;63979;55.644;37.734;2024-03-25T18:28:29;12.40;;;5.75;;
75408;SDS011;63979;55.644;37.734;2024-03-25T18:33:30;20.20;;;6.93;;
75408;SDS011;63979;55.644;37.734;2024-03-25T18:38:31;14.65;;;6.93;;
75408;SDS011;63979;55.644;37.734;2024-03-25T18:43:32;18.30;;;6.80;;
75408;SDS011;63979;55.644;37.734;2024-03-25T18:48:34;25.13;;;8.02;;
75408;SDS011;63979;55.644;37.734;2024-03-25T18:53:35;14.90;;;7.20;;
75408;SDS011;63979;55.644;37.734;2024-03-25T18:58:36;14.10;;;6.40;;
75408;SDS011;63979;55.644;37.734;2024-03-25T19:03:37;12.88;;;5.07;;
75408;SDS011;63979;55.644;37.734;2024-03-25T19:08:38;18.48;;;5.03;;
75408;SDS011;63979;55.644;37.734;2024-03-25T19:13:40;11.25;;;5.38;;
75408;SDS011;63979;55.644;37.734;2024-03-25T19:18:41;25.15;;;6.00;;
75408;SDS011;63979;55.644;37.734;2024-03-25T19:23:42;15.05;;;4.72;;
75408;SDS011;63979;55.644;37.734;2024-03-25T19:28:43;14.00;;;5.40;;
75408;SDS011;63979;55.644;37.734;2024-03-25T19:33:44;12.50;;;5.57;;
75408;SDS011;63979;55.644;37.734;2024-03-25T19:38:45;20.83;;;5.68;;
75408;SDS011;63979;55.644;37.734;2024-03-25T19:43:46;12.60;;;5.32;;
75408;SDS011;63979;55.644;37.734;2024-03-25T19:48:47;10.38;;;4.55;;
75408;SDS011;63979;55.644;37.734;2024-03-25T19:53:48;7.95;;;3.95;;
75408;SDS011;63979;55.644;37.734;2024-03-25T19:58:49;13.73;;;3.75;;
75408;SDS011;63979;55.644;37.734;2024-03-25T20:03:50;12.50;;;3.85;;
75408;SDS011;63979;55.644;37.734;2024-03-25T20:08:52;12.23;;;4.15;;
75408;SDS011;63979;55.644;37.734;2024-03-25T20:13:52;11.90;;;5.05;;
75408;SDS011;63979;55.644;37.734;2024-03-25T20:18:53;15.40;;;6.22;;
75408;SDS011;63979;55.644;37.734;2024-03-25T20:23:54;21.50;;;8.98;;
75408;SDS011;63979;55.644;37.734;2024-03-25T20:28:55;23.27;;;7.72;;
75408;SDS011;63979;55.644;37.734;2024-03-25T20:33:56;14.63;;;5.30;;
75408;SDS011;63979;55.644;37.734;2024-03-25T20:38:56;14.45;;;5.78;;
75408;SDS011;63979;55.644;37.734;2024-03-25T20:43:57;13.40;;;4.38;;
75408;SDS011;63979;55.644;37.734;2024-03-25T20:48:58;10.77;;;3.58;;
75408;SDS011;63979;55.644;37.734;2024-03-25T20:54:00;8.27;;;3.80;;
75408;SDS011;63979;55.644;37.734;2024-03-25T20:59:00;16.17;;;4.75;;
75408;SDS011;63979;55.644;37.734;2024-03-25T21:04:01;9.82;;;4.82;;
75408;SDS011;63979;55.644;37.734;2024-03-25T21:09:02;8.23;;;4.22;;
75408;SDS011;63979;55.644;37.734;2024-03-25T21:14:03;11.00;;;5.18;;
75408;SDS011;63979;55.644;37.734;2024-03-25T21:19:05;7.90;;;4.90;;
75408;SDS011;63979;55.644;37.734;2024-03-25T21:24:06;27.50;;;7.43;;
75408;SDS011;63979;55.644;37.734;2024-03-25T21:29:07;24.63;;;5.25;;
75408;SDS011;63979;55.644;37.734;2024-03-25T21:34:08;14.77;;;5.30;;
75408;SDS011;63979;55.644;37.734;2024-03-25T21:39:08;13.93;;;4.90;;
75408;SDS011;63979;55.644;37.734;2024-03-25T21:44:12;12.45;;;4.80;;
75408;SDS011;63979;55.644;37.734;2024-03-25T21:49:13;9.48;;;4.47;;
75408;SDS011;63979;55.644;37.734;2024-03-25T21:54:13;10.57;;;4.68;;
75408;SDS011;63979;55.644;37.734;2024-03-25T21:59:14;11.98;;;4.80;;
75408;SDS011;63979;55.644;37.734;2024-03-25T22:04:15;6.38;;;4.07;;
75408;SDS011;63979;55.644;37.734;2024-03-25T22:09:16;10.48;;;4.57;;
75408;SDS011;63979;55.644;37.734;2024-03-25T22:14:17;9.60;;;4.22;;
75408;SDS011;63979;55.644;37.734;2024-03-25T22:19:18;10.30;;;4.32;;
75408;SDS011;63979;55.644;37.734;2024-03-25T22:24:19;8.13;;;4.50;;
75408;SDS011;63979;55.644;37.734;2024-03-25T22:29:38;8.43;;;4.40;;
75408;SDS011;63979;55.644;37.734;2024-03-25T22:34:39;10.75;;;5.60;;
75408;SDS011;63979;55.644;37.734;2024-03-25T22:39:42;18.27;;;5.03;;
75408;SDS011;63979;55.644;37.734;2024-03-25T22:44:45;8.02;;;4.25;;
75408;SDS011;63979;55.644;37.734;2024-03-25T22:49:46;14.63;;;4.53;;
75408;SDS011;63979;55.644;37.734;2024-03-25T22:54:48;6.72;;;4.18;;
75408;SDS011;63979;55.644;37.734;2024-03-25T22:59:49;11.77;;;4.57;;
75408;SDS011;63979;55.644;37.734;2024-03-25T23:04:50;7.55;;;4.38;;
75408;SDS011;63979;55.644;37.734;2024-03-25T23:09:51;11.85;;;5.63;;
75408;SDS011;63979;55.644;37.734;2024-03-25T23:14:51;12.80;;;5.18;;
75408;SDS011;63979;55.644;37.734;2024-03-25T23:19:52;8.77;;;4.55;;
75408;SDS011;63979;55.644;37.734;2024-03-25T23:24:53;15.88;;;5.43;;
75408;SDS011;63979;55.644;37.734;2024-03-25T23:29:54;9.75;;;4.95;;
75408;SDS011;63979;55.644;37.734;2024-03-25T23:34:55;15.27;;;4.95;;
75408;SDS011;63979;55.644;37.734;2024-03-25T23:39:56;13.25;;;5.03;;
75408;SDS011;63979;55.644;37.734;2024-03-25T23:44:57;7.22;;;4.10;;
75408;SDS011;63979;55.644;37.734;2024-03-25T23:49:58;13.82;;;4.90;;
75408;SDS011;63979;55.644;37.734;2024-03-25T23:55:04;6.63;;;4.20;;
